EW1647 Weather Reports


Display with metric or nautical units.
time (UTC)temp
F
wind
direction
speed
MPH
gust
MPH
rain 1hr
in
rain 24hr
in
rain mn
in
humidity
%
barometer
mb
20220816013043 72 46 3.0 8.0 0.00 0.00 0.00 63 1016.0
20220816011542 74 22 2.0 5.0 0.00 0.00 0.00 61 1016.0
20220816010040 75 16 2.0 5.0 0.00 0.00 0.00 61 1016.0
20220816004549 76 337 0.0 3.0 0.00 0.00 0.00 60 1016.2
20220816003100 77 13 0.0 4.0 0.00 0.00 0.00 61 1016.3
20220816001637 80 5 1.0 3.0 0.00 0.00 0.00 58 1016.3
20220816000034 82 17 3.0 5.0 0.00 0.00 0.00 43 1016.3
20220815234533 82 360 2.0 4.0 0.00 0.00 0.00 44 1016.4
20220815233032 82 350 2.0 4.0 0.00 0.00 0.00 42 1016.6
20220815231600 82 303 2.0 4.0 0.00 0.00 0.00 42 1016.7
20220815230044 82 315 2.0 5.0 0.00 0.00 0.00 40 1016.8
20220815224523 81 304 2.0 4.0 0.00 0.00 0.00 44 1016.8
20220815223034 81 292 2.0 4.0 0.00 0.00 0.00 41 1016.9
20220815221530 80 302 2.0 5.0 0.00 0.00 0.00 41 1017.1
20220815220014 81 311 2.0 4.0 0.00 0.00 0.00 48 1017.3
20220815214524 80 319 2.0 5.0 0.00 0.00 0.00 51 1017.5
20220815213021 78 290 2.0 4.0 0.00 0.00 0.00 51 1017.6
20220815211515 78 299 2.0 5.0 0.00 0.00 0.00 54 1017.7
20220815210005 78 283 2.0 5.0 0.00 0.00 0.00 50 1017.7
20220815204502 76 292 2.0 6.0 0.00 0.00 0.00 53 1017.8
20220815203100 76 273 2.0 4.0 0.00 0.00 0.00 57 1017.9
20220815201608 74 284 1.0 4.0 0.00 0.00 0.00 62 1018.0
20220815200052 73 263 2.0 6.0 0.00 0.00 0.00 65 1018.2
20220815194607 71 306 3.0 5.0 0.00 0.00 0.00 65 1018.2
20220815193058 70 302 2.0 5.0 0.00 0.00 0.00 68 1018.4
20220815191546 69 317 3.0 5.0 0.00 0.00 0.00 68 1018.5
20220815190042 69 317 2.0 4.0 0.00 0.00 0.00 70 1018.5
20220815184625 67 316 2.0 4.0 0.00 0.00 0.00 71 1018.6
20220815183137 67 313 2.0 4.0 0.00 0.00 0.00 69 1018.8
20220815181603 66 314 2.0 4.0 0.00 0.00 0.00 71 1019.0
20220815180038 66 314 3.0 5.0 0.00 0.00 0.00 72 1019.0
20220815174537 65 308 1.0 4.0 0.00 0.00 0.00 74 1019.1
20220815173029 65 317 3.0 4.0 0.00 0.00 0.00 74 1019.0
20220815171537 64 317 2.0 4.0 0.00 0.00 0.00 77 1019.1
20220815170026 63 332 1.0 3.0 0.00 0.00 0.00 79 1019.0
20220815164523 62 355 1.0 2.0 0.00 0.00 0.00 80 1019.0
20220815163017 61 343 1.0 3.0 0.00 0.00 0.00 82 1019.2
20220815161522 61 334 0.0 3.0 0.00 0.00 0.00 83 1019.1
20220815160022 60 340 0.0 2.0 0.00 0.00 0.00 85 1019.1
20220815154533 60 355 1.0 3.0 0.00 0.00 0.00 85 1019.1
20220815153010 59 17 1.0 3.0 0.00 0.00 0.00 87 1019.1
20220815151516 59 155 1.0 2.0 0.00 0.00 0.00 86 1019.1
20220815150007 59 155 0.0 2.0 0.00 0.00 0.00 88 1019.0
20220815144506 58 155 1.0 2.0 0.00 0.00 0.00 89 1019.1
20220815143005 58 155 0.0 2.0 0.00 0.00 0.00 90 1019.1
20220815141510 57 155 1.0 2.0 0.00 0.00 0.00 90 1019.0
20220815140010 56 155 0.0 1.0 0.00 0.00 0.00 92 1019.0
20220815134514 56 157 3.0 6.0 0.00 0.00 0.00 92 1018.9
20220815133007 55 142 3.0 5.0 0.00 0.00 0.00 93 1018.9
20220815131502 55 132 3.0 4.0 0.00 0.00 0.00 94 1018.9
20220815130002 54 127 2.0 3.0 0.00 0.00 0.00 93 1018.9
20220815124505 54 127 2.0 3.0 0.00 0.00 0.00 93 1018.8
20220815123059 54 127 0.0 2.0 0.00 0.00 0.00 92 1018.8
20220815121557 54 127 0.0 2.0 0.00 0.00 0.00 92 1018.8
20220815120057 54 120 2.0 3.0 0.00 0.00 0.00 92 1018.8
20220815114555 55 120 2.0 3.0 0.00 0.00 0.00 91 1018.7
20220815113105 55 120 3.0 4.0 0.00 0.00 0.00 91 1018.6
20220815111556 55 83 2.0 3.0 0.00 0.00 0.00 90 1018.9
20220815110051 56 72 0.0 2.0 0.00 0.00 0.00 89 1018.8
20220815104555 56 60 0.0 3.0 0.00 0.00 0.00 89 1018.8
20220815103047 57 48 1.0 4.0 0.00 0.00 0.00 88 1018.7
20220815101604 57 78 2.0 5.0 0.00 0.00 0.00 88 1018.7
20220815100107 57 53 1.0 4.0 0.00 0.00 0.00 87 1018.8
20220815094604 57 75 2.0 4.0 0.00 0.00 0.00 88 1018.8
20220815093047 57 46 2.0 4.0 0.00 0.00 0.00 87 1018.8
20220815091539 58 61 1.0 4.0 0.00 0.00 0.00 86 1018.9
20220815090041 58 360 2.0 4.0 0.00 0.00 0.00 86 1019.2
20220815084645 58 51 3.0 8.0 0.00 0.00 0.00 85 1019.1
20220815083036 58 28 2.0 7.0 0.00 0.00 0.00 86 1019.2
20220815081533 58 321 3.0 6.0 0.00 0.00 0.00 86 1019.2
20220815080044 58 84 1.0 6.0 0.00 0.00 0.00 86 1019.2
20220815074544 58 78 2.0 5.0 0.00 0.00 0.00 86 1019.3
20220815073053 58 95 3.0 7.0 0.00 0.00 0.00 85 1019.3
20220815071526 59 83 3.0 5.0 0.00 0.00 0.00 84 1019.4
20220815070024 59 27 3.0 8.0 0.00 0.00 0.00 85 1019.5
20220815064544 59 5 5.0 9.0 0.00 0.00 0.00 84 1019.4
20220815063023 59 18 3.0 9.0 0.00 0.00 0.00 85 1019.4
20220815061526 59 346 2.0 5.0 0.00 0.00 0.00 86 1019.3
20220815060042 60 13 2.0 5.0 0.00 0.00 0.00 85 1019.2
20220815054524 60 9 5.0 8.0 0.00 0.00 0.00 84 1019.2
20220815053027 60 343 3.0 10.0 0.00 0.00 0.00 84 1019.2
20220815051519 60 265 1.0 4.0 0.00 0.00 0.00 84 1019.1
20220815050019 61 261 1.0 3.0 0.00 0.00 0.00 82 1019.0
20220815044522 62 262 1.0 5.0 0.00 0.00 0.00 78 1019.0
20220815043018 64 298 3.0 6.0 0.00 0.00 0.00 75 1019.1
20220815041521 64 36 3.0 6.0 0.00 0.00 0.00 74 1019.1
20220815040017 65 360 2.0 3.0 0.00 0.00 0.00 71 1019.0
20220815034517 65 26 2.0 4.0 0.00 0.00 0.00 70 1018.9
20220815033022 66 31 3.0 6.0 0.00 0.00 0.00 69 1018.7
20220815031517 67 104 3.0 7.0 0.00 0.00 0.00 67 1018.6
20220815030033 68 93 3.0 8.0 0.00 0.00 0.00 65 1018.6
20220815024513 70 75 2.0 6.0 0.00 0.00 0.00 64 1018.5
20220815023013 71 94 2.0 5.0 0.00 0.00 0.00 65 1018.6
20220815021530 73 62 4.0 6.0 0.00 0.00 0.00 59 1018.6
20220815020014 73 311 0.0 2.0 0.00 0.00 0.00 59 1018.7
20220815014511 74 5 0.0 5.0 0.00 0.00 0.00 54 1018.8